CheckWX is a tool to help pilots better visualize weather data.  It is not intended as a substitute for an official pre-flight weather briefing.

02:19:25 UTC

GVNP TAF
Praia International Airport
Praia, Cape Verde
TAF GVNP 262300Z 2700/2806 03016KT CAVOK PROB40 TEMPO 2708/2718 03016G28KT PROB40 2722/2806 7000 NSC

Jan-27@
00:00 UTC

Jan-27 @ 00:00 UTC

Jan-28@
06:00 UTC

Jan-28 @ 06:00 UTC

TAF GVNP 262300Z 2700/2806 03016KT CAVOK
Wind
  • 030° at 16 KTS
Conditions
No significant weather
Cloud Levels
  • No significant clouds

Jan-27@
08:00 UTC

Jan-27 @ 08:00 UTC

Jan-27@
18:00 UTC

Jan-27 @ 18:00 UTC

PROB40 TEMPO 2708/2718 03016G28KT

Temporary - 40% Likelihood

Temporary - 40% Likelihood during this time.

Wind
  • 030° at 16 KTS
  • {Gusting to 28 KTS

Jan-27@
22:00 UTC

Jan-27 @ 22:00 UTC

Jan-28@
06:00 UTC

Jan-28 @ 06:00 UTC

PROB40 2722/2806 7000 NSC

Probable - 40% Likelihood

Probable - 40% Likelihood during this time.

Cloud Levels
  • No significant clouds